Chickering American River Reserve, California Weather observations

Data are for 10 minute period ending at time listed.
 Day   Time   Solar   Ave.   Ave.  Ave.  Vector  Max.   Baro.   Total    
  of    of     Rad.   Air    Rel.  Wind   Wind   Wind  Press.  Precip.   
Year   Day            Temp.  Hum.  Speed  Dir.   Gust                    
2015   (PST)  Kw/m2    F      %     mph   deg.    mph    mb.     in.     
-------------------------------------------------------------------------
  64    3:10   0.00   23.2    66    1.2   188     1.9   822.8    0.00 
  64    3:20   0.00   22.9    68    1.6   187     2.6   822.8    0.00 
  64    3:30   0.00   23.1    65    2.0   206     3.1   822.8    0.00 
  64    3:40   0.00   23.5    63    2.7   207     3.5   822.8    0.00 
  64    3:50   0.00   23.4    64    1.8   193     3.2   822.8    0.00 
  64    4:00   0.00   23.0    65    2.1   195     3.1   822.8    0.00 
  64    4:10   0.00   23.2    64    1.8   190     3.1   822.9    0.00 
  64    4:20   0.00   22.8    66    2.0   196     3.9   822.9    0.00 
  64    4:30   0.00   23.1    64    1.8   206     3.0   823.0    0.00 
  64    4:40   0.00   23.2    64    1.8   195     2.7   823.0    0.00 
  64    4:50   0.00   23.0    65    2.0   196     2.6   823.0    0.00 
  64    5:00   0.00   22.7    65    2.0   195     2.6   823.1    0.00 
  64    5:10   0.00   23.1    63    2.3   202     3.4   823.2    0.00 
  64    5:20   0.00   23.0    64    1.7   188     2.9   823.2    0.00 
  64    5:30   0.00   22.7    63    1.9   193     2.8   823.3    0.00 
  64    5:40   0.00   23.0    62    2.0   195     2.8   823.4    0.00 
  64    5:50   0.00   22.9    62    2.2   201     3.1   823.6    0.00 
  64    6:00   0.00   22.9    61    2.0   193     2.9   823.7    0.00 
  64    6:10   0.00   22.9    60    2.0   198     2.8   823.8    0.00 
  64    6:20   0.00   22.9    62    2.0   191     2.6   823.9    0.00 
  64    6:30   0.00   22.9    61    1.7   203     2.2   824.0    0.00 
  64    6:40   0.00   23.2    60    1.6   194     2.6   824.0    0.00 
  64    6:50   0.00   23.6    58    1.9   202     3.3   824.1    0.00 
  64    7:00   0.01   23.8    58    1.5   198     2.9   824.2    0.00 
  64    7:10   0.02   24.0    60    2.2   202     3.1   824.4    0.00 
  64    7:20   0.03   24.4    60    1.7   185     2.9   824.6    0.00 
  64    7:30   0.03   25.0    62    1.6   186     3.3   824.6    0.00 
  64    7:40   0.03   25.6    61    0.4   182     1.4   824.8    0.00 
  64    7:50   0.03   26.7    60    0.9   170     3.2   824.9    0.00 
  64    8:00   0.03   29.2    53    0.4   206     1.3   824.9    0.00 
  64    8:10   0.04   30.7    52    0.2   171     1.9   824.9    0.00 
  64    8:20   0.04   32.2    50    0.1   171     1.2   825.0    0.00 
  64    8:30   0.04   34.6    47    0.9    66     2.1   825.1    0.00 
  64    8:40   0.04   36.2    43    1.4    71     3.2   825.1    0.00 
  64    8:50   0.04   38.9    35    1.7    74     3.7   825.2    0.00 
  64    9:00   0.19   41.7    31    0.7    55     2.3   825.2    0.00 
  64    9:10   0.51   42.8    33    1.2    66     2.2   825.3    0.00 
  64    9:20   0.55   44.7    32    1.3    63     2.3   825.4    0.00 
  64    9:30   0.58   48.1    27    1.6    54     3.1   825.6    0.00 
  64    9:40   0.60   49.0    25    1.9    21     4.7   825.7    0.00 
  64    9:50   0.63   49.5    25    1.4     0     5.3   825.9    0.00 
  64   10:00   0.20   50.7    23    1.5   353     3.8   826.0    0.00 
  64   10:10   0.10   49.9    26    1.8   350     5.2   826.0    0.00 
  64   10:20   0.16   50.1    18    1.8   132     4.9   826.1    0.00 
  64   10:30   0.71   51.7    16    1.3    92     5.2   826.1    0.00 
  64   10:40   0.74   53.7    14    1.8   144     5.3   826.1    0.00 
  64   10:50   0.76   54.6    13    1.3   123     4.0   826.1    0.00 
  64   11:00   0.78   56.4    13    1.4   163     4.3   826.1    0.00 
  64   11:10   0.79   56.9    12    1.6   156     4.5   826.0    0.00 
  64   11:20   0.80   56.7    15    1.6   204     4.7   826.0    0.00 
  64   11:30   0.81   56.2    15    1.1   180     6.6   826.0    0.00 
  64   11:40   0.82   56.4    15    1.3    65     4.5   826.0    0.00 
  64   11:50   0.82   56.1    22    1.9    11     7.4   825.9    0.00 
  64   12:00   0.83   55.9    22    1.5    24     4.7   825.9    0.00 
  64   12:10   0.83   57.6    19    1.5   103     4.6   825.9    0.00 
  64   12:20   0.83   57.5    20    1.8    36     7.4   825.9    0.00 
  64   12:30   0.82   56.1    22    2.0    26     4.9   825.8    0.00 
  64   12:40   0.82   55.4    19    2.5    11     5.3   825.7    0.00 
  64   12:50   0.81   55.9    20    1.4    18     3.9   825.6    0.00 
  64   13:00   0.81   55.7    19    1.3    41     5.8   825.5    0.00 
  64   13:10   0.79   55.9    22    2.3    24     4.9   825.5    0.00 
  64   13:20   0.78   55.8    22    1.4    25     4.8   825.4    0.00 
  64   13:30   0.77   56.6    20    1.7    24     4.9   825.3    0.00 
  64   13:40   0.75   56.5    21    2.1    16     5.3   825.2    0.00 
  64   13:50   0.73   55.3    22    2.8    10     8.2   825.2    0.00 
  64   14:00   0.71   55.7    21    1.6    10     6.1   825.2    0.00 
  64   14:10   0.69   56.0    20    1.3    56     4.4   825.2    0.00 
  64   14:20   0.67   56.1    22    1.5    34     5.9   825.2    0.00 
  64   14:30   0.65   55.1    22    1.2     5     3.4   825.2    0.00 
  64   14:40   0.62   53.4    24    1.5     2     4.0   825.3    0.00 
  64   14:50   0.34   53.5    24    1.3    22     4.1   825.4    0.00 
  64   15:00   0.14   53.6    25    1.4   349     6.8   825.5    0.00 
  64   15:10   0.44   53.0    28    1.4    14     4.1   825.5    0.00 
  64   15:20   0.48   52.5    27    1.1     3     4.0   825.5    0.00 
  64   15:30   0.45   51.0    29    2.0     1     5.3   825.4    0.00 
  64   15:40   0.09   48.7    31    1.5   351     6.6   825.5    0.00 
  64   15:50   0.04   48.0    33    1.5     1     5.1   825.5    0.00 
  64   16:00   0.06   47.5    34    1.0    10     3.4   825.5    0.00 
  64   16:10   0.04   47.4    35    0.6    11     2.4   825.6    0.00 
  64   16:20   0.03   46.8    36    0.8     3     4.4   825.6    0.00 
  64   16:30   0.03   46.3    38    0.8    18     2.0   825.6    0.00 
  64   16:40   0.03   45.7    39    0.3   343     2.4   825.6    0.00 
  64   16:50   0.02   45.3    40    0.5   230     1.5   825.6    0.00 
  64   17:00   0.01   44.8    44    0.7   235     1.7   825.7    0.00 
  64   17:10   0.01   43.8    49    1.0   222     1.8   825.7    0.00 
  64   17:20   0.01   42.6    52    1.0   235     1.7   825.8    0.00 
  64   17:30   0.01   41.6    54    0.9   228     1.9   825.9    0.00 
  64   17:40   0.00   40.5    56    1.5   216     2.0   825.9    0.00 
  64   17:50   0.00   38.6    60    1.8   203     2.6   825.9    0.00 
  64   18:00   0.00   37.7    61    1.9   207     2.9   826.0    0.00 
  64   18:10   0.00   37.0    64    1.6   195     2.5   826.1    0.00 
  64   18:20   0.00   35.6    69    1.6   186     2.9   826.1    0.00 
  64   18:30   0.00   35.0    69    1.9   206     3.1   826.1    0.00 
  64   18:40   0.00   34.7    69    1.4   195     2.5   826.2    0.00 
  64   18:50   0.00   34.0    69    1.7   211     2.7   826.2    0.00 
  64   19:00   0.00   33.9    69    1.0   228     1.8   826.2    0.00 
  64   19:10   0.00   33.6    70    1.4   223     2.3   826.2    0.00 
  64   19:20   0.00   33.6    68    0.3   200     2.0   826.2    0.00 
  64   19:30   0.00   32.6    75    1.3   187     2.1   826.2    0.00 
  64   19:40   0.00   32.0    74    2.3   208     3.1   826.2    0.00 
  64   19:50   0.00   31.7    76    2.2   198     3.8   826.2    0.00 
  64   20:00   0.00   31.2    77    1.2   201     2.1   826.2    0.00 
  64   20:10   0.00   31.5    75    1.2   197     3.4   826.2    0.00 
  64   20:20   0.00   30.9    78    1.8   206     3.2   826.2    0.00 
  64   20:30   0.00   30.5    79    1.7   204     3.4   826.2    0.00 
  64   20:40   0.00   30.1    80    1.7   179     4.3   826.2    0.00 
  64   20:50   0.00   29.7    81    1.9   190     4.5   826.1    0.00 
  64   21:00   0.00   29.9    78    1.7   196     3.0   826.2    0.00 
  64   21:10   0.00   30.0    76    1.8   208     3.1   826.2    0.00 
  64   21:20   0.00   30.4    72    1.6   202     2.5   826.2    0.00 
  64   21:30   0.00   30.4    70    1.8   216     2.9   826.2    0.00 
  64   21:40   0.00   30.6    70    1.9   195     3.0   826.3    0.00 
  64   21:50   0.00   30.4    72    2.2   205     3.3   826.3    0.00 
  64   22:00   0.00   30.7    69    2.0   205     3.1   826.3    0.00 
  64   22:10   0.00   31.2    67    1.8   207     3.2   826.2    0.00 
  64   22:20   0.00   31.9    63    1.8   217     2.8   826.3    0.00 
  64   22:30   0.00   32.0    63    1.4   212     2.8   826.3    0.00 
  64   22:40   0.00   32.3    62    1.7   208     2.9   826.2    0.00 
  64   22:50   0.00   32.1    62    1.7   211     3.1   826.2    0.00 
  64   23:00   0.00   32.2    61    1.6   218     2.8   826.2    0.00 
  64   23:10   0.00   32.4    61    1.3   218     2.7   826.1    0.00 
  64   23:20   0.00   32.5    60    1.7   225     2.8   826.1    0.00 
  64   23:30   0.00   32.8    59    1.6   220     2.6   826.1    0.00 
  64   23:40   0.00   32.4    59    2.0   222     3.1   826.1    0.00 
  64   23:50   0.00   32.8    58    1.6   204     3.0   826.1    0.00 
  65    0:00   0.00   32.0    62    2.2   199     4.0   826.0    0.00 
  65    0:10   0.00   31.1    64    1.8   199     4.2   826.0    0.00 
  65    0:20   0.00   30.0    69    2.5   204     4.0   825.9    0.00 
  65    0:30   0.00   30.3    64    1.8   193     3.7   825.9    0.00 
  65    0:40   0.00   29.4    67    2.3   204     3.6   825.8    0.00 
  65    0:50   0.00   29.6    65    2.1   198     3.5   825.8    0.00 
  65    1:00   0.00   28.9    66    2.3   192     3.9   825.7    0.00 
  65    1:10   0.00   29.1    64    2.1   200     3.4   825.7    0.00 
  65    1:20   0.00   28.5    67    2.2   197     3.7   825.7    0.00 
  65    1:30   0.00   28.6    66    2.7   199     4.3   825.7    0.00 
  65    1:40   0.00   28.7    64    2.2   198     3.9   825.7    0.00 
  65    1:50   0.00   28.5    64    2.3   194     3.5   825.7    0.00 
  65    2:00   0.00   28.7    62    2.2   208     4.4   825.7    0.00 
  65    2:10   0.00   28.4    64    2.3   197     3.8   825.6    0.00 
  65    2:20   0.00   28.1    65    2.2   198     3.5   825.5    0.00 
  65    2:30   0.00   28.1    63    2.2   196     3.7   825.5    0.00 
  65    2:40   0.00   27.8    64    2.3   198     4.2   825.4    0.00 
  65    2:50   0.00   27.8    64    2.2   190     3.4   825.3    0.00 
  65    3:00   0.00   27.5    65    2.4   196     3.9   825.2    0.00 

Return to Chickering American River Reserve graphs page.


Western Regional Climate Center,wrcc@dri.edu